createdAt,value
2019-04-03T00:00:52.882Z,18.34
2019-04-03T00:06:01.180Z,17.89
2019-04-03T00:11:09.680Z,18.51
2019-04-03T00:16:17.576Z,17.84
2019-04-03T00:21:25.573Z,17.98
2019-04-03T00:26:33.811Z,18.12
2019-04-03T00:31:42.126Z,18.65
2019-04-03T00:36:52.906Z,18.32
2019-04-03T00:41:58.045Z,17.69
2019-04-03T00:47:06.240Z,18.25
2019-04-03T00:52:14.481Z,18.94
2019-04-03T00:57:22.775Z,17.76
2019-04-03T01:02:30.835Z,18.36
2019-04-03T01:07:38.907Z,18.57
2019-04-03T01:12:47.166Z,18.35
2019-04-03T01:17:55.245Z,18.70
2019-04-03T01:23:03.417Z,18.45
2019-04-03T01:28:11.845Z,18.33
2019-04-03T01:33:19.727Z,18.09
2019-04-03T01:38:27.983Z,17.67
2019-04-03T01:43:36.054Z,17.73
2019-04-03T01:48:44.133Z,17.92
2019-04-03T01:53:52.373Z,18.08
2019-04-03T01:59:00.640Z,18.02
2019-04-03T02:04:09.085Z,18.38
2019-04-03T02:09:17.170Z,18.54
2019-04-03T02:14:25.511Z,18.29
2019-04-03T02:19:33.622Z,18.18
2019-04-03T02:24:41.882Z,18.57
2019-04-03T02:29:50.097Z,17.24
2019-04-03T02:34:58.573Z,18.98
2019-04-03T02:40:06.621Z,18.06
2019-04-03T02:45:14.813Z,17.97
2019-04-03T02:50:23.184Z,18.19
2019-04-03T02:55:31.302Z,18.53
2019-04-03T03:00:40.019Z,18.55
2019-04-03T03:05:48.047Z,18.38
2019-04-03T03:10:56.947Z,19.03
2019-04-03T03:16:05.255Z,18.74
2019-04-03T03:21:14.229Z,18.48
2019-04-03T03:26:20.896Z,19.04
2019-04-03T03:31:59.221Z,19.11
2019-04-03T03:36:36.987Z,19.48
2019-04-03T03:41:44.242Z,19.33
2019-04-03T03:46:52.487Z,18.64
2019-04-03T03:52:04.100Z,19.25
2019-04-03T03:57:08.346Z,19.28
2019-04-03T04:02:16.513Z,19.39
2019-04-03T04:07:24.799Z,19.07
2019-04-03T04:12:33.300Z,19.71
2019-04-03T04:17:41.419Z,20.07
2019-04-03T04:22:51.229Z,19.85
2019-04-03T04:27:57.081Z,19.96
2019-04-03T04:33:05.284Z,19.28
2019-04-03T04:38:13.450Z,20.19
2019-04-03T04:43:21.646Z,20.36
2019-04-03T04:48:29.963Z,19.86
2019-04-03T04:53:38.072Z,19.55
2019-04-03T04:58:46.139Z,19.40
2019-04-03T05:03:55.441Z,19.48
2019-04-03T05:09:04.246Z,19.45
2019-04-03T05:14:12.048Z,20.07
2019-04-03T05:19:19.619Z,19.94
2019-04-03T05:24:28.479Z,19.14
2019-04-03T05:29:34.755Z,19.28
2019-04-03T05:34:44.410Z,19.13
2019-04-03T05:39:54.704Z,19.15
2019-04-03T05:45:03.859Z,20.29
2019-04-03T05:50:08.679Z,19.00
2019-04-03T05:55:16.854Z,19.30
2019-04-03T06:00:25.217Z,19.62
2019-04-03T06:05:33.607Z,18.93
2019-04-03T06:10:42.197Z,17.93
2019-04-03T06:16:02.725Z,18.50
2019-04-03T06:20:56.126Z,17.94
2019-04-03T06:26:01.039Z,18.29
2019-04-03T06:30:59.185Z,18.12
2019-04-03T06:35:59.871Z,18.52
2019-04-03T06:41:09.045Z,18.74
2019-04-03T06:46:16.079Z,17.68
2019-04-03T06:51:24.690Z,18.64
2019-04-03T06:56:33.133Z,18.09
2019-04-03T07:01:43.637Z,17.18
2019-04-03T07:06:42.787Z,17.03
2019-04-03T07:11:49.836Z,16.70
2019-04-03T07:17:00.296Z,16.46
2019-04-03T07:22:08.915Z,17.27
2019-04-03T07:27:09.387Z,17.00
2019-04-03T07:32:17.745Z,16.34
2019-04-03T07:37:26.147Z,16.82
2019-04-03T07:42:34.765Z,17.43
2019-04-03T07:47:43.106Z,17.13
2019-04-03T07:52:51.395Z,16.28
2019-04-03T07:58:00.784Z,16.07
2019-04-03T08:03:06.279Z,15.42
2019-04-03T08:08:14.744Z,16.27
2019-04-03T08:13:23.293Z,15.90
2019-04-03T08:18:32.242Z,15.95
2019-04-03T08:23:40.918Z,15.91
2019-04-03T08:28:49.198Z,16.68
2019-04-03T08:33:59.161Z,16.27
2019-04-03T08:39:05.098Z,16.23
2019-04-03T08:44:13.554Z,15.78
2019-04-03T08:49:21.832Z,16.45
2019-04-03T08:54:30.230Z,17.23
2019-04-03T08:59:38.694Z,17.81
2019-04-03T09:04:48.069Z,17.84
2019-04-03T09:09:54.577Z,18.03
2019-04-03T09:15:03.240Z,16.93
2019-04-03T09:20:13.446Z,16.71
2019-04-03T09:25:19.133Z,17.13
2019-04-03T09:30:27.525Z,17.60
2019-04-03T09:35:35.931Z,17.28
2019-04-03T09:40:47.334Z,18.13
2019-04-03T09:45:52.484Z,15.84
2019-04-03T09:51:01.040Z,15.96
2019-04-03T09:56:12.382Z,16.60
2019-04-03T10:01:17.725Z,17.62
2019-04-03T10:06:16.348Z,19.70
2019-04-03T10:11:24.657Z,19.72
2019-04-03T10:16:34.935Z,20.78
2019-04-03T10:21:41.010Z,20.62
2019-04-03T10:26:48.052Z,21.09
2019-04-03T10:31:56.477Z,22.28
2019-04-03T10:37:04.964Z,19.93
2019-04-03T10:42:13.462Z,20.89
2019-04-03T10:47:26.595Z,19.72
2019-04-03T10:52:29.488Z,18.60
2019-04-03T10:57:37.793Z,18.24
2019-04-03T11:02:46.445Z,16.52
2019-04-03T11:07:54.761Z,15.12
2019-04-03T11:13:03.799Z,13.92
2019-04-03T11:18:11.003Z,14.15
2019-04-03T11:23:20.280Z,15.06
2019-04-03T11:28:27.076Z,14.26
2019-04-03T11:33:35.440Z,12.47
2019-04-03T11:38:43.833Z,10.35
2019-04-03T11:43:52.183Z,11.04
2019-04-03T11:49:01.309Z,10.90
2019-04-03T11:54:09.444Z,10.70
2019-04-03T11:59:17.887Z,8.93
2019-04-03T12:04:26.098Z,9.37
2019-04-03T12:09:34.286Z,9.44
2019-04-03T12:14:42.385Z,9.91
2019-04-03T12:19:50.905Z,10.20
2019-04-03T12:24:58.861Z,10.25
2019-04-03T12:30:07.239Z,10.08
2019-04-03T12:35:15.318Z,10.69
2019-04-03T12:40:23.768Z,9.80
2019-04-03T12:45:31.819Z,8.98
2019-04-03T12:50:40.109Z,8.26
2019-04-03T12:55:52.415Z,7.82
2019-04-03T13:00:50.315Z,6.30
2019-04-03T13:05:58.122Z,5.26
2019-04-03T13:11:06.827Z,4.82
2019-04-03T13:16:15.229Z,3.89
2019-04-03T13:21:24.294Z,3.64
2019-04-03T13:26:31.618Z,3.74
2019-04-03T13:31:39.974Z,4.74
2019-04-03T13:36:40.174Z,4.69
2019-04-03T13:41:48.432Z,4.09
2019-04-03T13:46:57.592Z,3.53
2019-04-03T13:52:10.043Z,3.64
2019-04-03T14:02:07.491Z,5.02
2019-04-03T14:07:15.924Z,5.32
2019-04-03T14:12:24.123Z,4.98
2019-04-03T14:17:32.285Z,4.66
2019-04-03T14:22:42.843Z,3.73
2019-04-03T14:27:50.017Z,3.54
2019-04-03T14:32:58.534Z,3.64
2019-04-03T14:38:05.925Z,3.36
2019-04-03T14:43:14.387Z,3.57
2019-04-03T14:48:25.504Z,4.09
2019-04-03T14:53:30.600Z,4.34
2019-04-03T14:58:39.277Z,5.10
2019-04-03T15:03:47.774Z,5.77
2019-04-03T15:08:56.035Z,6.39
2019-04-03T15:14:04.114Z,7.47
2019-04-03T15:19:13.746Z,7.42
2019-04-03T15:24:20.193Z,8.57
2019-04-03T15:29:28.375Z,8.60
2019-04-03T15:34:36.645Z,9.01
2019-04-03T15:39:47.785Z,9.50
2019-04-03T15:44:58.755Z,10.84
2019-04-03T15:49:58.825Z,11.17
2019-04-03T15:55:04.875Z,11.63
2019-04-03T16:00:13.792Z,11.53
2019-04-03T16:05:22.232Z,11.89
2019-04-03T16:10:37.349Z,11.54
2019-04-03T16:15:34.126Z,11.57
2019-04-03T16:20:42.632Z,12.67
2019-04-03T16:25:50.772Z,11.93
2019-04-03T16:30:58.342Z,11.12
2019-04-03T16:36:07.018Z,11.65
2019-04-03T16:41:15.747Z,11.58
2019-04-03T16:46:23.728Z,10.57
2019-04-03T16:51:33.714Z,10.57
2019-04-03T16:56:40.265Z,11.68
2019-04-03T17:01:48.773Z,12.00
2019-04-03T17:06:56.996Z,11.39
2019-04-03T17:12:05.151Z,11.29
2019-04-03T17:17:14.818Z,10.20
2019-04-03T17:22:24.688Z,10.35
2019-04-03T17:27:23.153Z,10.36
2019-04-03T17:32:31.583Z,10.30
2019-04-03T17:37:40.766Z,11.09
2019-04-03T17:42:49.064Z,10.84
2019-04-03T17:47:58.353Z,10.89
2019-04-03T17:53:07.092Z,10.80
2019-04-03T17:58:16.838Z,10.83
2019-04-03T18:03:22.478Z,11.03
2019-04-03T18:08:32.515Z,10.99
2019-04-03T18:13:36.799Z,11.63
2019-04-03T18:18:45.021Z,12.48
2019-04-03T18:23:53.508Z,11.91
2019-04-03T18:29:01.456Z,10.82
2019-04-03T18:34:09.707Z,11.95
2019-04-03T18:39:18.002Z,12.01
2019-04-03T18:44:27.827Z,11.98
2019-04-03T18:49:33.880Z,11.71
2019-04-03T18:54:42.491Z,11.61
2019-04-03T18:59:49.494Z,13.47
2019-04-03T19:05:02.142Z,14.47
2019-04-03T19:10:07.340Z,13.53
2019-04-03T19:15:12.854Z,15.40
2019-04-03T19:20:20.950Z,15.53
2019-04-03T19:25:29.658Z,15.71
2019-04-03T19:30:37.924Z,15.50
2019-04-03T19:35:44.365Z,15.54
2019-04-03T19:40:52.427Z,16.83
2019-04-03T19:46:00.442Z,18.15
2019-04-03T19:51:08.509Z,16.61
2019-04-03T19:56:16.578Z,15.89
2019-04-03T20:01:24.804Z,16.04
2019-04-03T20:06:32.902Z,16.36
2019-04-03T20:11:41.142Z,17.87
2019-04-03T20:16:49.290Z,17.61
2019-04-03T20:21:58.225Z,19.53
2019-04-03T20:27:06.639Z,17.92
2019-04-03T20:32:14.939Z,18.61
2019-04-03T20:37:25.993Z,18.91
2019-04-03T20:42:30.779Z,19.42
2019-04-03T20:47:39.289Z,19.32
2019-04-03T20:52:47.638Z,19.83
2019-04-03T20:57:56.369Z,22.04
2019-04-03T21:03:04.418Z,23.29
2019-04-03T21:08:12.859Z,23.13
2019-04-03T21:13:21.057Z,22.92
2019-04-03T21:18:29.252Z,24.24
2019-04-03T21:23:37.458Z,23.21
2019-04-03T21:28:45.750Z,23.53
2019-04-03T21:33:55.739Z,23.03
2019-04-03T21:38:54.769Z,23.36
2019-04-03T21:44:03.336Z,23.05
2019-04-03T21:49:11.747Z,22.96
2019-04-03T21:54:20.178Z,24.12
2019-04-03T21:59:28.349Z,24.99
2019-04-03T22:04:36.576Z,23.46
2019-04-03T22:09:44.774Z,26.91
2019-04-03T22:14:53.134Z,23.70
2019-04-03T22:20:01.322Z,23.86
2019-04-03T22:25:09.611Z,23.58
2019-04-03T22:30:18.054Z,23.39
2019-04-03T22:35:27.949Z,24.03
2019-04-03T22:40:33.839Z,25.06
2019-04-03T22:45:42.134Z,25.65
2019-04-03T22:50:50.546Z,25.91
2019-04-03T22:55:58.692Z,26.24
2019-04-03T23:01:06.827Z,27.42
2019-04-03T23:06:15.013Z,27.22
2019-04-03T23:11:23.245Z,27.59
2019-04-03T23:16:31.504Z,27.81
2019-04-03T23:21:39.584Z,28.68
2019-04-03T23:26:47.749Z,31.77
2019-04-03T23:31:55.898Z,33.55
2019-04-03T23:37:04.250Z,36.97
2019-04-03T23:42:12.581Z,36.56
2019-04-03T23:47:20.831Z,33.78
2019-04-03T23:52:29.919Z,32.03
2019-04-03T23:57:39.600Z,28.65
